createdAt,value
2023-04-13T00:00:11.122Z,13.10
2023-04-13T00:02:40.157Z,5.95
2023-04-13T00:05:11.197Z,3.33
2023-04-13T00:07:43.466Z,2.20
2023-04-13T00:10:12.440Z,3.10
2023-04-13T00:12:43.049Z,7.95
2023-04-13T00:15:13.111Z,5.07
2023-04-13T00:17:43.078Z,7.85
2023-04-13T00:20:13.359Z,6.22
2023-04-13T00:22:44.442Z,4.10
2023-04-13T00:25:15.402Z,4.22
2023-04-13T00:27:44.850Z,5.15
2023-04-13T00:30:15.813Z,3.17
2023-04-13T00:32:46.037Z,3.25
2023-04-13T00:35:19.015Z,9.18
2023-04-13T00:37:49.035Z,5.18
2023-04-13T00:40:18.077Z,4.05
2023-04-13T00:42:47.386Z,5.35
2023-04-13T00:45:16.582Z,4.82
2023-04-13T00:47:48.323Z,2.75
2023-04-13T00:50:20.718Z,6.38
2023-04-13T00:52:50.634Z,3.78
2023-04-13T00:55:22.015Z,3.85
2023-04-13T00:57:52.660Z,3.25
2023-04-13T01:00:24.498Z,3.60
2023-04-13T01:02:53.119Z,5.93
2023-04-13T01:05:21.888Z,6.65
2023-04-13T01:08:09.793Z,8.70
2023-04-13T01:10:48.870Z,5.80
2023-04-13T01:13:24.680Z,3.63
2023-04-13T01:16:01.321Z,4.40
2023-04-13T01:18:31.567Z,4.97
2023-04-13T01:21:01.199Z,6.22
2023-04-13T01:23:44.078Z,5.35
2023-04-13T01:26:12.875Z,3.88
2023-04-13T01:28:43.401Z,5.82
2023-04-13T01:31:13.922Z,4.22
2023-04-13T01:33:43.161Z,5.10
2023-04-13T01:36:13.069Z,2.60
2023-04-13T01:38:41.233Z,7.57
2023-04-13T01:41:10.331Z,5.28
2023-04-13T01:43:38.808Z,3.70
2023-04-13T01:46:14.347Z,4.95
2023-04-13T01:48:49.891Z,5.05
2023-04-13T01:51:21.780Z,3.25
2023-04-13T01:53:58.039Z,5.43
2023-04-13T01:56:28.078Z,2.75
2023-04-13T01:59:00.005Z,4.13
2023-04-13T02:01:29.679Z,5.63
2023-04-13T02:03:58.267Z,4.22
2023-04-13T02:06:27.022Z,5.25
2023-04-13T02:08:55.258Z,2.88
2023-04-13T02:11:23.436Z,3.25
2023-04-13T02:13:53.127Z,3.97
2023-04-13T02:16:21.520Z,2.45
2023-04-13T02:18:51.163Z,4.45
2023-04-13T02:21:19.491Z,4.88
2023-04-13T02:23:47.713Z,9.23
2023-04-13T02:26:16.412Z,6.68
2023-04-13T02:28:45.564Z,4.43
2023-04-13T02:31:16.784Z,3.28
2023-04-13T02:33:46.380Z,5.35
2023-04-13T02:36:17.564Z,9.02
2023-04-13T02:38:46.128Z,5.28
2023-04-13T02:41:14.447Z,9.30
2023-04-13T02:43:45.719Z,7.82
2023-04-13T02:46:14.450Z,9.00
2023-04-13T02:48:42.866Z,7.82
2023-04-13T02:51:12.305Z,5.43
2023-04-13T02:53:42.179Z,13.77
2023-04-13T02:56:11.259Z,8.15
2023-04-13T02:58:39.531Z,14.00
2023-04-13T03:01:08.810Z,9.60
2023-04-13T03:03:38.048Z,7.55
2023-04-13T03:06:06.956Z,5.05
2023-04-13T03:08:35.666Z,8.35
2023-04-13T03:11:06.302Z,6.25
2023-04-13T03:13:34.551Z,6.90
2023-04-13T03:16:04.772Z,8.02
2023-04-13T03:18:33.265Z,10.60
2023-04-13T03:21:02.664Z,9.25
2023-04-13T03:23:30.887Z,9.60
2023-04-13T03:25:59.218Z,10.98
2023-04-13T03:28:28.953Z,11.82
2023-04-13T03:30:57.384Z,7.22
2023-04-13T03:33:25.923Z,5.43
2023-04-13T03:35:54.221Z,7.30
2023-04-13T03:38:22.698Z,14.27
2023-04-13T03:40:50.945Z,12.50
2023-04-13T03:43:19.344Z,12.93
2023-04-13T03:45:49.022Z,13.77
2023-04-13T03:48:17.257Z,12.55
2023-04-13T03:50:45.453Z,12.80
2023-04-13T03:53:13.923Z,11.57
2023-04-13T03:55:42.425Z,12.68
2023-04-13T03:58:11.223Z,12.55
2023-04-13T04:00:39.409Z,10.63
2023-04-13T04:03:09.554Z,15.30
2023-04-13T04:05:40.235Z,12.00
2023-04-13T04:08:08.623Z,12.45
2023-04-13T04:10:37.133Z,13.40
2023-04-13T04:13:06.080Z,18.17
2023-04-13T04:15:34.442Z,13.50
2023-04-13T04:18:02.748Z,15.18
2023-04-13T04:20:33.087Z,13.15
2023-04-13T04:23:01.388Z,13.35
2023-04-13T04:25:29.775Z,12.68
2023-04-13T04:27:58.340Z,16.48
2023-04-13T04:30:29.625Z,13.55
2023-04-13T04:32:59.203Z,8.85
2023-04-13T04:35:33.818Z,8.25
2023-04-13T04:38:04.525Z,13.35
2023-04-13T04:40:35.712Z,11.23
2023-04-13T04:43:16.023Z,8.88
2023-04-13T04:45:48.128Z,11.30
2023-04-13T04:48:17.153Z,10.23
2023-04-13T04:50:49.107Z,17.05
2023-04-13T04:53:21.712Z,13.77
2023-04-13T04:55:50.033Z,13.80
2023-04-13T04:58:19.630Z,15.38
2023-04-13T05:00:49.808Z,14.15
2023-04-13T05:03:18.956Z,14.70
2023-04-13T05:05:47.683Z,11.32
2023-04-13T05:08:18.954Z,14.70
2023-04-13T05:10:48.809Z,13.75
2023-04-13T05:13:21.351Z,19.65
2023-04-13T05:15:49.977Z,11.15
2023-04-13T05:18:18.923Z,13.93
2023-04-13T05:21:08.950Z,13.75
2023-04-13T05:23:39.004Z,13.93
2023-04-13T05:26:11.434Z,16.05
2023-04-13T05:28:40.823Z,13.85
2023-04-13T05:31:11.358Z,10.18
2023-04-13T05:33:43.213Z,11.25
2023-04-13T05:36:12.006Z,15.35
2023-04-13T05:38:40.347Z,7.63
2023-04-13T05:41:10.570Z,6.55
2023-04-13T05:43:38.800Z,13.43
2023-04-13T05:46:08.031Z,8.05
2023-04-13T05:48:36.624Z,5.45
2023-04-13T05:51:05.086Z,6.85
2023-04-13T05:53:35.929Z,11.57
2023-04-13T05:56:04.431Z,8.60
2023-04-13T05:58:34.721Z,9.75
2023-04-13T06:01:03.898Z,13.48
2023-04-13T06:03:32.815Z,10.65
2023-04-13T06:06:01.363Z,7.93
2023-04-13T06:08:32.668Z,10.25
2023-04-13T06:11:04.943Z,12.90
2023-04-13T06:13:34.832Z,15.10
2023-04-13T06:16:03.961Z,8.95
2023-04-13T06:18:32.630Z,7.75
2023-04-13T06:21:01.129Z,11.52
2023-04-13T06:23:30.091Z,12.45
2023-04-13T06:25:59.219Z,9.45
2023-04-13T06:28:30.544Z,10.48
2023-04-13T06:31:00.520Z,13.18
2023-04-13T06:33:28.994Z,9.55
2023-04-13T06:35:57.576Z,9.25
2023-04-13T06:38:25.910Z,14.98
2023-04-13T06:40:54.193Z,7.07
2023-04-13T06:43:29.186Z,11.35
2023-04-13T06:46:02.679Z,14.35
2023-04-13T06:48:32.161Z,14.75
2023-04-13T06:51:01.234Z,14.55
2023-04-13T06:53:29.639Z,14.30
2023-04-13T06:55:58.057Z,14.52
2023-04-13T06:58:27.173Z,18.02
2023-04-13T07:00:55.725Z,19.98
2023-04-13T07:03:25.963Z,13.35
2023-04-13T07:05:54.575Z,12.20
2023-04-13T07:08:23.036Z,12.05
2023-04-13T07:10:55.243Z,8.82
2023-04-13T07:13:23.658Z,9.68
2023-04-13T07:15:52.081Z,12.55
2023-04-13T07:18:20.487Z,5.57
2023-04-13T07:20:50.155Z,10.27
2023-04-13T07:23:18.959Z,10.07
2023-04-13T07:25:47.128Z,13.43
2023-04-13T07:28:15.669Z,10.93
2023-04-13T07:30:44.886Z,14.70
2023-04-13T07:33:13.846Z,10.00
2023-04-13T07:35:42.146Z,9.05
2023-04-13T07:38:11.824Z,10.90
2023-04-13T07:40:40.064Z,10.50
2023-04-13T07:43:08.257Z,9.80
2023-04-13T07:45:36.437Z,12.90
2023-04-13T07:48:05.963Z,13.50
2023-04-13T07:50:35.281Z,11.80
2023-04-13T07:53:03.606Z,15.82
2023-04-13T07:55:33.282Z,13.93
2023-04-13T07:58:02.053Z,10.27
2023-04-13T08:00:30.478Z,18.48
2023-04-13T08:02:58.851Z,17.70
2023-04-13T08:05:27.509Z,16.83
2023-04-13T08:07:55.847Z,21.50
2023-04-13T08:10:24.975Z,21.90
2023-04-13T08:12:55.647Z,12.20
2023-04-13T08:15:24.266Z,13.35
2023-04-13T08:17:52.901Z,12.18
2023-04-13T08:20:24.268Z,17.08
2023-04-13T08:22:52.883Z,12.55
2023-04-13T08:25:21.732Z,13.70
2023-04-13T08:27:50.625Z,27.58
2023-04-13T08:30:20.732Z,19.00
2023-04-13T08:32:49.131Z,22.35
2023-04-13T08:35:17.624Z,16.45
2023-04-13T08:37:45.990Z,21.13
2023-04-13T08:40:15.114Z,16.65
2023-04-13T08:42:43.676Z,22.60
2023-04-13T08:45:13.173Z,19.88
2023-04-13T08:47:43.682Z,19.70
2023-04-13T08:50:13.120Z,30.25
2023-04-13T08:52:41.728Z,20.48
2023-04-13T08:55:11.035Z,24.88
2023-04-13T08:57:41.636Z,23.13
2023-04-13T09:00:16.487Z,27.55
2023-04-13T09:03:03.048Z,23.98
2023-04-13T09:05:35.318Z,23.08
2023-04-13T09:08:07.838Z,20.50
2023-04-13T09:10:36.508Z,18.55
2023-04-13T09:13:05.318Z,24.00
2023-04-13T09:15:34.122Z,22.13
2023-04-13T09:18:12.946Z,18.83
2023-04-13T09:20:42.578Z,21.30
2023-04-13T09:23:16.442Z,25.83
2023-04-13T09:25:48.198Z,21.63
2023-04-13T09:28:20.107Z,26.92
2023-04-13T09:30:49.772Z,22.30
2023-04-13T09:33:20.000Z,21.67
2023-04-13T09:35:48.524Z,23.38
2023-04-13T09:38:17.604Z,18.85
2023-04-13T09:40:54.450Z,17.65
2023-04-13T09:43:22.843Z,23.52
2023-04-13T09:45:51.473Z,22.73
2023-04-13T09:48:23.150Z,16.83
2023-04-13T09:51:02.467Z,21.60
2023-04-13T09:53:42.646Z,23.15
2023-04-13T09:56:12.423Z,12.48
2023-04-13T09:58:45.644Z,16.90
2023-04-13T10:01:15.251Z,13.32
2023-04-13T10:03:46.378Z,21.73
2023-04-13T10:06:15.411Z,16.20
2023-04-13T10:08:46.393Z,14.02
2023-04-13T10:11:16.103Z,13.65
2023-04-13T10:13:52.022Z,16.48
2023-04-13T10:16:56.828Z,15.50
2023-04-13T10:19:31.224Z,13.93
2023-04-13T10:22:01.397Z,19.30
2023-04-13T10:24:30.148Z,17.50
2023-04-13T10:27:01.855Z,18.65
2023-04-13T10:29:30.915Z,20.20
2023-04-13T10:32:03.562Z,16.27
2023-04-13T10:34:35.909Z,23.05
2023-04-13T10:37:06.872Z,15.00
2023-04-13T10:39:36.933Z,17.75
2023-04-13T10:42:07.677Z,18.60
2023-04-13T10:44:44.695Z,21.25
2023-04-13T10:47:14.606Z,14.93
2023-04-13T10:49:47.008Z,23.98
2023-04-13T10:52:16.337Z,19.75
2023-04-13T10:54:45.644Z,17.98
2023-04-13T10:57:16.936Z,17.08
2023-04-13T10:59:57.966Z,17.10
2023-04-13T11:02:33.047Z,18.05
2023-04-13T11:05:03.320Z,16.60
2023-04-13T11:07:33.662Z,16.50
2023-04-13T11:10:03.315Z,15.82
2023-04-13T11:12:32.197Z,19.63
2023-04-13T11:15:00.839Z,17.20
2023-04-13T11:17:29.628Z,17.63
2023-04-13T11:19:59.282Z,18.55
2023-04-13T11:22:37.153Z,18.98
2023-04-13T11:25:10.528Z,14.60
2023-04-13T11:27:39.069Z,20.58
2023-04-13T11:30:11.230Z,17.88
2023-04-13T11:32:44.324Z,20.92
2023-04-13T11:35:15.365Z,16.98
2023-04-13T11:37:49.343Z,16.75
2023-04-13T11:40:21.558Z,22.15
2023-04-13T11:42:51.807Z,17.00
2023-04-13T11:45:21.865Z,17.30
2023-04-13T11:47:52.229Z,17.38
2023-04-13T11:50:21.626Z,16.25
2023-04-13T11:52:59.675Z,13.02
2023-04-13T11:55:29.187Z,18.88
2023-04-13T11:57:59.929Z,10.90
2023-04-13T12:00:30.132Z,15.20
2023-04-13T12:03:02.617Z,12.95
2023-04-13T12:05:34.450Z,16.73
2023-04-13T12:08:05.110Z,14.18
2023-04-13T12:10:41.416Z,20.75
2023-04-13T12:13:24.057Z,17.05
2023-04-13T12:16:08.555Z,16.40
2023-04-13T12:18:46.953Z,10.45
2023-04-13T12:21:20.553Z,14.77
2023-04-13T12:23:59.910Z,21.63
2023-04-13T12:27:16.127Z,10.73
2023-04-13T12:29:26.582Z,13.68
2023-04-13T12:32:03.932Z,14.77
2023-04-13T12:34:32.443Z,13.20
2023-04-13T12:37:00.732Z,13.50
2023-04-13T12:39:32.794Z,13.43
2023-04-13T12:42:01.333Z,12.32
2023-04-13T12:44:31.224Z,13.93
2023-04-13T12:47:00.725Z,13.07
2023-04-13T12:49:29.143Z,13.68
2023-04-13T12:51:58.118Z,15.02
2023-04-13T12:54:30.935Z,11.35
2023-04-13T12:56:59.809Z,17.15
2023-04-13T12:59:28.339Z,12.48
2023-04-13T13:02:00.006Z,14.23
2023-04-13T13:04:31.391Z,15.13
2023-04-13T13:07:00.578Z,10.30
2023-04-13T13:09:31.319Z,18.35
2023-04-13T13:11:59.682Z,12.65
2023-04-13T13:14:29.215Z,15.10
2023-04-13T13:16:57.530Z,17.25
2023-04-13T13:19:25.899Z,18.00
2023-04-13T13:21:54.530Z,15.82
2023-04-13T13:24:25.804Z,15.23
2023-04-13T13:27:40.602Z,11.25
2023-04-13T13:29:50.229Z,10.05
2023-04-13T13:32:20.673Z,12.77
2023-04-13T13:34:52.151Z,11.20
2023-04-13T13:37:21.958Z,14.93
2023-04-13T13:39:50.414Z,17.33
2023-04-13T13:42:20.195Z,18.35
2023-04-13T13:44:49.131Z,13.60
2023-04-13T13:47:17.642Z,20.40
2023-04-13T13:49:46.442Z,12.50
2023-04-13T13:52:14.919Z,11.65
2023-04-13T13:54:43.284Z,15.82
2023-04-13T13:57:11.794Z,15.27
2023-04-13T13:59:41.609Z,15.02
2023-04-13T14:02:12.822Z,14.32
2023-04-13T14:04:41.575Z,8.80
2023-04-13T14:07:10.406Z,15.43
2023-04-13T14:09:39.112Z,12.73
2023-04-13T14:12:09.305Z,13.10
2023-04-13T14:14:37.688Z,15.02
2023-04-13T14:17:07.908Z,15.82
2023-04-13T14:19:36.457Z,16.13
2023-04-13T14:22:04.896Z,15.65
2023-04-13T14:24:33.287Z,12.38
2023-04-13T14:27:01.628Z,13.18
2023-04-13T14:29:32.128Z,10.73
2023-04-13T14:32:00.537Z,12.05
2023-04-13T14:34:31.380Z,10.70
2023-04-13T14:37:00.600Z,14.82
2023-04-13T14:39:28.821Z,13.73
2023-04-13T14:41:57.060Z,10.95
2023-04-13T14:44:26.085Z,10.82
2023-04-13T14:46:59.204Z,14.60
2023-04-13T14:49:29.121Z,14.25
2023-04-13T14:51:57.601Z,14.30
2023-04-13T14:54:26.316Z,18.65
2023-04-13T14:56:58.030Z,17.15
2023-04-13T14:59:41.869Z,13.05
2023-04-13T15:02:12.113Z,13.07
2023-04-13T15:04:44.438Z,15.57
2023-04-13T15:07:14.324Z,13.25
2023-04-13T15:09:43.277Z,17.15
2023-04-13T15:12:13.540Z,10.88
2023-04-13T15:14:46.550Z,8.65
2023-04-13T15:17:15.059Z,11.25
2023-04-13T15:19:44.765Z,13.77
2023-04-13T15:22:13.070Z,12.68
2023-04-13T15:24:41.388Z,12.07
2023-04-13T15:27:14.140Z,11.52
2023-04-13T15:29:45.686Z,13.65
2023-04-13T15:32:15.485Z,18.05
2023-04-13T15:34:47.196Z,11.65
2023-04-13T15:37:17.068Z,13.30
2023-04-13T15:39:45.871Z,12.73
2023-04-13T15:42:14.627Z,13.45
2023-04-13T15:44:44.380Z,17.45
2023-04-13T15:47:14.420Z,11.30
2023-04-13T15:49:44.483Z,11.85
2023-04-13T15:52:13.356Z,12.55
2023-04-13T15:54:42.563Z,13.75
2023-04-13T15:57:13.301Z,15.60
2023-04-13T15:59:50.839Z,12.70
2023-04-13T16:02:20.899Z,17.88
2023-04-13T16:04:52.945Z,11.65
2023-04-13T16:07:21.887Z,10.88
2023-04-13T16:09:58.759Z,11.77
2023-04-13T16:12:33.203Z,16.05
2023-04-13T16:15:03.433Z,12.88
2023-04-13T16:17:34.036Z,13.77
2023-04-13T16:20:17.757Z,13.02
2023-04-13T16:22:49.208Z,13.32
2023-04-13T16:25:22.319Z,11.45
2023-04-13T16:27:54.855Z,13.23
2023-04-13T16:30:24.927Z,12.95
2023-04-13T16:32:54.863Z,10.95
2023-04-13T16:35:27.931Z,13.95
2023-04-13T16:38:09.331Z,11.98
2023-04-13T16:40:38.354Z,11.30
2023-04-13T16:43:07.266Z,14.10
2023-04-13T16:45:37.996Z,11.07
2023-04-13T16:48:10.731Z,15.05
2023-04-13T16:50:42.018Z,10.50
2023-04-13T16:53:16.990Z,15.77
2023-04-13T16:55:51.812Z,15.13
2023-04-13T16:58:26.016Z,16.60
2023-04-13T17:00:54.631Z,12.93
2023-04-13T17:03:24.011Z,15.05
2023-04-13T17:05:57.638Z,16.90
2023-04-13T17:08:28.319Z,21.05
2023-04-13T17:10:58.218Z,17.40
2023-04-13T17:13:27.577Z,17.48
2023-04-13T17:15:56.555Z,17.45
2023-04-13T17:18:25.399Z,14.85
2023-04-13T17:20:58.834Z,15.85
2023-04-13T17:23:31.033Z,16.90
2023-04-13T17:25:59.963Z,12.73
2023-04-13T17:28:30.999Z,13.25
2023-04-13T17:30:59.556Z,8.75
2023-04-13T17:33:29.425Z,14.23
2023-04-13T17:36:00.824Z,14.95
2023-04-13T17:38:30.129Z,21.25
2023-04-13T17:41:00.537Z,14.80
2023-04-13T17:43:29.365Z,23.35
2023-04-13T17:46:00.028Z,13.38
2023-04-13T17:48:29.199Z,13.32
2023-04-13T17:51:00.435Z,17.45
2023-04-13T17:53:29.906Z,12.10
2023-04-13T17:56:01.608Z,16.02
2023-04-13T17:58:33.248Z,12.63
2023-04-13T18:01:09.190Z,16.85
2023-04-13T18:03:41.219Z,19.48
2023-04-13T18:06:11.959Z,18.42
2023-04-13T18:08:41.728Z,9.52
2023-04-13T18:11:11.549Z,13.18
2023-04-13T18:13:45.385Z,17.70
2023-04-13T18:16:15.151Z,19.60
2023-04-13T18:18:47.902Z,12.90
2023-04-13T18:21:23.029Z,14.57
2023-04-13T18:23:57.248Z,18.38
2023-04-13T18:26:26.490Z,17.52
2023-04-13T18:28:57.590Z,20.83
2023-04-13T18:31:27.742Z,16.05
2023-04-13T18:33:57.965Z,18.35
2023-04-13T18:36:29.825Z,13.88
2023-04-13T18:38:58.870Z,16.13
2023-04-13T18:41:28.383Z,21.40
2023-04-13T18:43:57.014Z,14.60
2023-04-13T18:46:29.672Z,22.27
2023-04-13T18:49:02.352Z,19.98
2023-04-13T18:51:33.590Z,19.10
2023-04-13T18:54:02.670Z,12.70
2023-04-13T18:56:36.452Z,13.25
2023-04-13T18:59:05.754Z,17.27
2023-04-13T19:01:35.431Z,19.77
2023-04-13T19:04:04.860Z,21.08
2023-04-13T19:06:36.748Z,19.65
2023-04-13T19:09:08.591Z,17.63
2023-04-13T19:12:02.914Z,19.52
2023-04-13T19:14:33.436Z,19.85
2023-04-13T19:17:03.870Z,15.93
2023-04-13T19:19:32.707Z,19.52
2023-04-13T19:22:03.475Z,20.48
2023-04-13T19:24:32.629Z,16.77
2023-04-13T19:27:01.571Z,16.17
2023-04-13T19:29:33.586Z,26.73
2023-04-13T19:32:05.405Z,24.90
2023-04-13T19:34:34.748Z,27.27
2023-04-13T19:37:06.198Z,23.02
2023-04-13T19:39:35.315Z,17.20
2023-04-13T19:42:05.125Z,22.13
2023-04-13T19:44:34.240Z,25.42
2023-04-13T19:47:03.754Z,18.13
2023-04-13T19:49:33.323Z,12.43
2023-04-13T19:52:04.087Z,17.42
2023-04-13T19:54:33.586Z,16.95
2023-04-13T19:57:02.777Z,24.83
2023-04-13T19:59:32.244Z,17.73
2023-04-13T20:02:03.388Z,17.63
2023-04-13T20:04:32.685Z,17.92
2023-04-13T20:07:02.004Z,24.40
2023-04-13T20:09:32.074Z,21.75
2023-04-13T20:12:01.841Z,15.20
2023-04-13T20:14:31.436Z,24.58
2023-04-13T20:17:01.649Z,16.85
2023-04-13T20:19:30.437Z,23.95
2023-04-13T20:22:03.001Z,13.70
2023-04-13T20:24:33.785Z,17.48
2023-04-13T20:27:04.051Z,23.38
2023-04-13T20:29:36.120Z,20.48
2023-04-13T20:32:10.251Z,25.30
2023-04-13T20:34:41.706Z,26.02
2023-04-13T20:37:10.817Z,19.48
2023-04-13T20:39:50.220Z,19.05
2023-04-13T20:42:20.192Z,16.40
2023-04-13T20:44:49.531Z,25.48
2023-04-13T20:47:20.083Z,22.77
2023-04-13T20:49:54.852Z,18.63
2023-04-13T20:52:26.024Z,36.35
2023-04-13T20:54:58.331Z,27.95
2023-04-13T20:57:28.015Z,20.30
2023-04-13T20:59:56.998Z,22.90
2023-04-13T21:02:29.749Z,22.00
2023-04-13T21:04:58.793Z,27.08
2023-04-13T21:07:30.459Z,21.67
2023-04-13T21:10:01.784Z,20.58
2023-04-13T21:12:30.668Z,24.98
2023-04-13T21:14:59.957Z,30.15
2023-04-13T21:17:30.865Z,14.75
2023-04-13T21:19:59.682Z,14.80
2023-04-13T21:22:29.008Z,15.90
2023-04-13T21:25:00.670Z,17.88
2023-04-13T21:27:31.629Z,28.42
2023-04-13T21:30:02.430Z,20.95
2023-04-13T21:32:31.541Z,20.17
2023-04-13T21:35:00.742Z,15.77
2023-04-13T21:37:32.969Z,12.00
2023-04-13T21:40:05.690Z,20.88
2023-04-13T21:42:38.947Z,12.52
2023-04-13T21:45:12.507Z,17.98
2023-04-13T21:47:41.388Z,12.07
2023-04-13T21:50:11.051Z,16.83
2023-04-13T21:52:40.123Z,18.13
2023-04-13T21:55:18.107Z,14.80
2023-04-13T21:57:47.584Z,17.90
2023-04-13T22:00:19.531Z,12.98
2023-04-13T22:02:49.741Z,18.10
2023-04-13T22:05:18.021Z,16.75
2023-04-13T22:07:48.445Z,21.65
2023-04-13T22:10:19.405Z,15.40
2023-04-13T22:12:49.412Z,16.90
2023-04-13T22:15:19.193Z,19.58
2023-04-13T22:17:48.868Z,12.82
2023-04-13T22:20:20.865Z,19.05
2023-04-13T22:22:52.354Z,13.55
2023-04-13T22:25:25.410Z,18.70
2023-04-13T22:27:54.404Z,16.80
2023-04-13T22:30:24.700Z,14.95
2023-04-13T22:32:54.132Z,14.88
2023-04-13T22:35:23.880Z,9.70
2023-04-13T22:37:54.345Z,12.32
2023-04-13T22:40:25.147Z,20.05
2023-04-13T22:42:55.139Z,16.92
2023-04-13T22:45:24.220Z,13.90
2023-04-13T22:47:55.250Z,13.48
2023-04-13T22:50:23.824Z,15.98
2023-04-13T22:52:53.345Z,13.93
2023-04-13T22:55:24.105Z,15.40
2023-04-13T22:57:55.438Z,16.73
2023-04-13T23:00:24.819Z,14.93
2023-04-13T23:02:56.299Z,16.85
2023-04-13T23:05:26.735Z,12.68
2023-04-13T23:07:55.890Z,14.02
2023-04-13T23:10:39.407Z,19.75
2023-04-13T23:13:08.939Z,14.93
2023-04-13T23:15:38.099Z,14.55
2023-04-13T23:18:08.128Z,15.23
2023-04-13T23:20:37.752Z,12.02
2023-04-13T23:23:06.314Z,16.17
2023-04-13T23:25:36.729Z,9.35
2023-04-13T23:28:06.875Z,18.35
2023-04-13T23:30:37.627Z,13.73
2023-04-13T23:33:08.743Z,15.10
2023-04-13T23:35:37.379Z,16.48
2023-04-13T23:38:06.381Z,9.13
2023-04-13T23:40:37.137Z,11.32
2023-04-13T23:43:06.143Z,14.90
2023-04-13T23:45:34.695Z,17.52
2023-04-13T23:48:04.378Z,14.48
2023-04-13T23:50:33.954Z,15.52
2023-04-13T23:53:02.563Z,12.48
2023-04-13T23:55:32.125Z,17.98
2023-04-13T23:58:02.751Z,20.15
